Time;durP1;ratioP1;P1;durP2;ratioP2;P2;SDS_P1;SDS_P2;PMS_P1;PMS_P2;Temp;Humidity;BMP_temperature;BMP_pressure;BME280_temperature;BME280_humidity;BME280_pressure;Samples;Min_cycle;Max_cycle;Signal;HPM_P1;HPM_P2
2024/02/25 00:01:59;;;;;;;4.03;1.65;;;;;;;9.18;56.47;99966.06;4935762;28;109794;-79
2024/02/25 00:04:26;;;;;;;4.82;1.40;;;;;;;9.19;56.29;99975.66;4932782;28;123585;-79
2024/02/25 00:06:58;;;;;;;2.00;1.17;;;;;;;9.19;56.35;99973.03;4925371;28;124008;-79
2024/02/25 00:09:26;;;;;;;1.65;1.17;;;;;;;9.20;56.50;99980.03;4930655;28;109203;-79
2024/02/25 00:11:53;;;;;;;2.90;1.40;;;;;;;9.20;56.45;99964.19;4932603;28;108391;-78
2024/02/25 00:14:21;;;;;;;4.25;1.77;;;;;;;9.22;56.60;99972.88;4935858;28;124438;-78
2024/02/25 00:16:55;;;;;;;3.78;1.30;;;;;;;9.22;56.66;99967.59;4929302;28;123190;-78
2024/02/25 00:19:23;;;;;;;4.00;1.38;;;;;;;9.22;56.29;99970.22;4934227;28;109006;-79
2024/02/25 00:21:51;;;;;;;4.43;1.10;;;;;;;9.22;56.77;99967.59;4930829;28;108514;-79
2024/02/25 00:24:19;;;;;;;3.53;1.20;;;;;;;9.22;56.60;99962.31;4933579;28;123796;-78
2024/02/25 00:26:47;;;;;;;3.55;1.38;;;;;;;9.23;56.81;99974.56;4930775;28;123505;-78
2024/02/25 00:29:15;;;;;;;3.17;1.35;;;;;;;9.23;56.75;99975.44;4931841;28;109137;-79
2024/02/25 00:31:42;;;;;;;2.80;1.30;;;;;;;9.24;56.80;99973.63;4933100;28;109083;-78
2024/02/25 00:34:10;;;;;;;4.07;1.35;;;;;;;9.25;56.78;99972.69;4936149;28;123843;-79
2024/02/25 00:36:38;;;;;;;2.25;1.10;;;;;;;9.25;56.92;99985.91;4932228;28;124168;-79
2024/02/25 00:39:08;;;;;;;3.60;1.23;;;;;;;9.24;56.49;99986.84;4945265;28;108646;-79
2024/02/25 00:41:36;;;;;;;3.28;1.30;;;;;;;9.24;56.95;99986.84;4929662;28;108595;-79
2024/02/25 00:44:03;;;;;;;3.00;1.25;;;;;;;9.24;56.79;99987.69;4923813;28;124630;-79
2024/02/25 00:46:30;;;;;;;4.53;1.27;;;;;;;9.25;57.15;99977.97;4920739;28;124091;-79
2024/02/25 00:48:59;;;;;;;2.35;1.10;;;;;;;9.25;56.65;99984.13;4925091;28;109947;-79
2024/02/25 00:51:27;;;;;;;2.97;1.30;;;;;;;9.26;56.82;99990.25;4929752;28;109892;-79
2024/02/25 00:53:55;;;;;;;2.90;1.50;;;;;;;9.25;57.12;99989.41;4943627;28;123513;-80
2024/02/25 00:56:23;;;;;;;2.00;1.13;;;;;;;9.26;57.30;99984.97;4943270;28;124296;-79
2024/02/25 00:58:55;;;;;;;2.92;1.00;;;;;;;9.24;57.42;99986.84;4938047;28;109613;-80
2024/02/25 01:01:22;;;;;;;3.38;1.50;;;;;;;9.24;57.12;99976.28;4937682;28;107996;-80
2024/02/25 01:03:54;;;;;;;3.28;1.40;;;;;;;9.23;57.37;99982.50;4938355;28;122989;-79
2024/02/25 01:06:21;;;;;;;2.72;1.20;;;;;;;9.23;57.39;99982.50;4940676;28;123710;-79
2024/02/25 01:08:48;;;;;;;3.47;1.40;;;;;;;9.23;57.13;99974.56;4950185;28;109683;-79
2024/02/25 01:11:16;;;;;;;4.20;1.77;;;;;;;9.24;57.46;99986.84;4939592;28;108619;-79
2024/02/25 01:13:47;;;;;;;7.68;1.52;;;;;;;9.24;57.30;99973.63;4941826;28;124380;-80
2024/02/25 01:16:14;;;;;;;2.38;1.27;;;;;;;9.25;57.30;99972.69;4947830;28;125597;-80
2024/02/25 01:18:45;;;;;;;2.90;1.30;;;;;;;9.24;57.73;99971.84;4938739;28;109216;-80
2024/02/25 01:21:13;;;;;;;3.05;1.65;;;;;;;9.25;57.60;99973.56;4952737;28;108300;-79
2024/02/25 01:23:41;;;;;;;3.83;1.42;;;;;;;9.24;57.57;99965.72;4943535;28;123547;-80
2024/02/25 01:26:10;;;;;;;2.55;1.48;;;;;;;9.25;57.69;99972.69;4931525;28;124072;-80
2024/02/25 01:28:40;;;;;;;2.97;1.50;;;;;;;9.25;57.95;99972.69;4940192;28;109979;-80
2024/02/25 01:31:07;;;;;;;3.65;1.35;;;;;;;9.26;57.66;99964.69;4935443;28;107325;-80
2024/02/25 01:33:34;;;;;;;2.05;1.20;;;;;;;9.27;57.93;99960.28;4952477;28;123752;-80
2024/02/25 01:36:01;;;;;;;3.22;1.40;;;;;;;9.27;57.60;99962.91;4937580;28;124403;-79
2024/02/25 01:38:29;;;;;;;3.80;1.30;;;;;;;9.26;57.65;99958.56;4935880;28;109550;-79
2024/02/25 01:40:58;;;;;;;2.58;1.20;;;;;;;9.27;58.08;99955.00;4955613;28;111293;-80
2024/02/25 01:43:25;;;;;;;2.95;1.30;;;;;;;9.28;58.04;99959.31;4944860;28;124453;-81
2024/02/25 01:45:57;;;;;;;3.80;1.45;;;;;;;9.28;57.99;99956.69;4949238;28;121888;-80
2024/02/25 01:48:24;;;;;;;2.65;1.30;;;;;;;9.28;57.86;99956.69;4949336;28;107249;-80
2024/02/25 01:50:55;;;;;;;4.80;1.50;;;;;;;9.28;58.07;99954.03;4944775;28;109152;-80
2024/02/25 01:53:25;;;;;;;3.88;1.40;;;;;;;9.29;58.16;99958.41;4937880;28;124388;-80
2024/02/25 01:56:02;;;;;;;5.38;1.40;;;;;;;9.29;58.41;99958.41;4954697;28;122478;-80
2024/02/25 01:58:30;;;;;;;3.60;1.20;;;;;;;9.30;58.44;99957.44;4950733;28;109210;-80
2024/02/25 02:00:58;;;;;;;2.47;1.40;;;;;;;9.31;58.53;99957.38;4952573;28;108654;-80
2024/02/25 02:03:27;;;;;;;2.47;1.17;;;;;;;9.32;58.44;99953.81;4947401;28;123404;-80
2024/02/25 02:05:55;;;;;;;2.92;1.02;;;;;;;9.34;58.58;99956.34;4964107;28;122075;-80
2024/02/25 02:08:28;;;;;;;2.20;1.20;;;;;;;9.36;58.42;99954.47;4956504;28;109611;-81
2024/02/25 02:10:56;;;;;;;2.40;1.00;;;;;;;9.37;58.29;99956.19;4935403;28;107034;-81
2024/02/25 02:13:25;;;;;;;2.10;1.00;;;;;;;9.39;58.23;99953.47;4946217;28;124337;-81
2024/02/25 02:15:56;;;;;;;2.45;1.00;;;;;;;9.40;58.61;99950.75;4951247;28;124670;-81
2024/02/25 02:18:25;;;;;;;1.73;0.98;;;;;;;9.41;58.44;99947.16;4926124;28;109593;-80
2024/02/25 02:20:56;;;;;;;1.70;0.80;;;;;;;9.43;58.52;99950.56;4944925;28;107992;-81
2024/02/25 02:26:31;;;;;;;2.03;0.98;;;;;;;9.47;58.29;99949.44;4965304;28;121563;-70
2024/02/25 02:28:58;;;;;;;1.50;0.93;;;;;;;9.48;58.79;99948.53;4970423;28;109588;-70
2024/02/25 02:31:25;;;;;;;1.55;0.90;;;;;;;9.50;58.66;99941.38;4967632;28;109923;-70
2024/02/25 02:33:53;;;;;;;1.65;0.93;;;;;;;9.53;58.73;99946.50;4968535;28;124466;-70
2024/02/25 02:36:20;;;;;;;2.55;0.90;;;;;;;9.57;58.69;99943.66;4964577;28;123406;-70
2024/02/25 02:38:47;;;;;;;1.42;1.00;;;;;;;9.59;58.61;99945.31;4959742;28;109338;-70
2024/02/25 02:41:18;;;;;;;1.13;0.90;;;;;;;9.61;58.57;99947.88;4963794;28;108561;-70
2024/02/25 02:43:46;;;;;;;1.13;0.70;;;;;;;9.63;58.40;99945.97;4963486;28;124059;-70
2024/02/25 02:46:14;;;;;;;1.10;0.80;;;;;;;9.65;58.78;99946.75;4969680;28;123728;-69
2024/02/25 02:48:41;;;;;;;1.80;0.93;;;;;;;9.67;58.60;99950.16;4970017;28;109618;-69
2024/02/25 02:51:08;;;;;;;2.38;0.90;;;;;;;9.67;58.37;99942.22;4962856;28;109214;-70
2024/02/25 02:53:36;;;;;;;2.20;0.70;;;;;;;9.67;58.39;99942.22;4964132;28;124352;-70
2024/02/25 02:56:03;;;;;;;1.50;0.80;;;;;;;9.68;58.50;99943.91;4970671;28;122978;-70
2024/02/25 02:58:30;;;;;;;1.30;0.80;;;;;;;9.68;58.42;99950.06;4959289;28;108401;-70
2024/02/25 03:00:58;;;;;;;2.25;0.90;;;;;;;9.70;58.46;99939.38;4972076;28;108910;-69
2024/02/25 03:07:53;;;;;;;1.58;0.70;;;;;;;9.72;58.24;99940.19;4972979;28;124433;-71
2024/02/25 03:10:31;;;;;;;1.77;0.73;;;;;;;9.71;58.30;99943.75;4948391;28;116018;-71
2024/02/25 03:13:00;;;;;;;1.25;0.70;;;;;;;9.72;58.12;99945.47;4953935;28;113667;-70
2024/02/25 03:15:27;;;;;;;2.50;0.90;;;;;;;9.72;58.12;99950.75;4959272;28;123983;-71
2024/02/25 03:17:54;;;;;;;1.50;0.82;;;;;;;9.75;58.21;99945.28;4963122;28;126702;-70
2024/02/25 03:20:22;;;;;;;1.00;0.63;;;;;;;9.75;58.12;99945.28;4956729;28;115294;-70
2024/02/25 03:22:49;;;;;;;1.95;0.75;;;;;;;9.76;58.22;99941.72;4960099;28;114964;-70
2024/02/25 03:25:16;;;;;;;0.93;0.70;;;;;;;9.77;58.41;99943.41;4957648;28;121715;-70
2024/02/25 03:27:44;;;;;;;1.10;0.73;;;;;;;9.78;58.21;99949.56;4965269;28;124347;-70
2024/02/25 03:30:11;;;;;;;1.15;0.80;;;;;;;9.78;58.00;99945.13;4963028;28;114262;-70
2024/02/25 03:32:38;;;;;;;1.00;0.80;;;;;;;9.78;58.10;99945.13;4964496;28;113690;-70
2024/02/25 03:35:07;;;;;;;0.82;0.80;;;;;;;9.78;58.08;99945.13;4959270;28;123459;-70
2024/02/25 03:37:34;;;;;;;0.80;0.70;;;;;;;9.78;58.10;99946.94;4961949;28;123695;-70
2024/02/25 03:40:01;;;;;;;0.50;0.50;;;;;;;9.78;58.01;99944.28;4962739;28;114275;-70
2024/02/25 03:42:28;;;;;;;2.10;0.73;;;;;;;9.77;57.90;99948.69;4951738;28;113290;-71
2024/02/25 03:44:56;;;;;;;0.85;0.70;;;;;;;9.76;58.02;99944.34;4962937;28;123815;-71
2024/02/25 03:47:23;;;;;;;1.35;0.60;;;;;;;9.75;58.15;99950.56;4960657;28;123761;-71
2024/02/25 03:49:51;;;;;;;1.95;0.55;;;;;;;9.75;57.81;99950.56;4978546;28;114134;-71
2024/02/25 03:52:18;;;;;;;1.15;0.70;;;;;;;9.75;57.91;99945.28;4960332;28;113831;-71
2024/02/25 03:54:50;;;;;;;0.90;0.70;;;;;;;9.75;58.16;99945.28;4960571;28;123842;-71
2024/02/25 03:57:17;;;;;;;0.95;0.60;;;;;;;9.75;58.07;99934.69;4965796;28;123820;-71
2024/02/25 03:59:44;;;;;;;0.80;0.65;;;;;;;9.75;57.99;99935.56;4956106;28;113543;-71
2024/02/25 04:02:12;;;;;;;1.05;0.60;;;;;;;9.77;57.92;99943.41;4965020;28;114026;-71
2024/02/25 04:04:46;;;;;;;1.00;0.70;;;;;;;9.76;58.05;99941.72;4962978;28;123286;-70
2024/02/25 04:07:13;;;;;;;1.10;0.70;;;;;;;9.76;58.00;99941.72;4956974;28;123331;-71
2024/02/25 04:09:41;;;;;;;0.77;0.70;;;;;;;9.76;58.27;99931.13;4964355;28;116703;-71
2024/02/25 04:12:08;;;;;;;1.70;0.77;;;;;;;9.76;58.20;99941.72;4956431;28;115247;-70
2024/02/25 04:14:36;;;;;;;2.75;0.80;;;;;;;9.77;58.10;99943.41;4952261;28;123992;-70
2024/02/25 04:17:03;;;;;;;0.90;0.68;;;;;;;9.76;58.23;99931.13;4950801;28;123083;-71
2024/02/25 04:19:32;;;;;;;1.83;0.70;;;;;;;9.76;58.35;99941.72;4961383;28;114407;-71
2024/02/25 04:21:59;;;;;;;1.52;0.80;;;;;;;9.76;58.05;99947.00;4967372;28;113953;-70
2024/02/25 04:24:26;;;;;;;0.90;0.70;;;;;;;9.77;58.32;99948.69;4966465;28;123013;-71
2024/02/25 04:26:54;;;;;;;1.83;0.90;;;;;;;9.76;58.34;99939.06;4948982;28;123950;-70
2024/02/25 04:29:21;;;;;;;1.13;0.70;;;;;;;9.75;58.12;99945.28;4952058;28;113511;-71
2024/02/25 04:31:49;;;;;;;2.00;0.95;;;;;;;9.73;58.22;99947.16;4958522;28;113878;-71
2024/02/25 04:34:16;;;;;;;1.42;0.70;;;;;;;9.71;58.43;99949.03;4968138;28;123994;-71
2024/02/25 04:36:47;;;;;;;1.75;0.88;;;;;;;9.69;58.28;99945.63;4965346;28;124037;-71
2024/02/25 04:39:14;;;;;;;1.08;0.77;;;;;;;9.69;58.54;99943.00;4959477;28;114187;-71
2024/02/25 04:41:42;;;;;;;1.13;0.90;;;;;;;9.68;58.35;99943.91;4957093;28;113144;-71
2024/02/25 04:44:10;;;;;;;1.92;0.93;;;;;;;9.66;58.68;99951.09;4962873;28;123507;-71
2024/02/25 04:46:39;;;;;;;1.33;1.00;;;;;;;9.65;58.46;99954.69;4954967;28;124232;-71
2024/02/25 04:49:08;;;;;;;1.35;0.98;;;;;;;9.63;58.75;99956.56;4965399;28;114410;-71
2024/02/25 04:51:36;;;;;;;1.20;0.90;;;;;;;9.63;58.65;99946.81;4964983;28;113677;-71
2024/02/25 04:54:03;;;;;;;1.48;0.90;;;;;;;9.63;58.69;99948.63;4966145;28;123743;-71
2024/02/25 04:56:31;;;;;;;1.25;0.90;;;;;;;9.62;58.71;99950.41;4959750;28;124872;-71
2024/02/25 04:58:58;;;;;;;1.63;1.10;;;;;;;9.63;58.96;99954.75;4956601;28;114974;-71
2024/02/25 05:01:25;;;;;;;1.65;1.20;;;;;;;9.63;58.95;99951.28;4962063;28;114538;-71
2024/02/25 05:03:53;;;;;;;1.60;1.08;;;;;;;9.63;59.10;99953.91;4963289;28;123947;-70
2024/02/25 05:06:21;;;;;;;2.60;1.00;;;;;;;9.64;59.36;99955.59;4965415;28;123944;-71
2024/02/25 05:08:49;;;;;;;2.38;1.30;;;;;;;9.62;59.03;99949.56;4975954;28;114123;-71
2024/02/25 05:11:16;;;;;;;2.25;1.40;;;;;;;9.61;59.29;99958.44;4959691;28;114093;-71
2024/02/25 05:13:44;;;;;;;2.95;1.30;;;;;;;9.60;59.26;99957.56;4964425;28;123884;-71
2024/02/25 05:16:11;;;;;;;1.60;1.10;;;;;;;9.61;59.21;99963.72;4959731;28;123387;-71
2024/02/25 05:18:38;;;;;;;1.75;1.27;;;;;;;9.62;59.45;99954.84;4963646;28;114527;-70
2024/02/25 05:21:06;;;;;;;2.03;1.50;;;;;;;9.61;59.26;99961.09;4953991;28;113774;-71
2024/02/25 05:23:33;;;;;;;2.47;1.20;;;;;;;9.62;59.55;99960.13;4961948;28;124080;-71
2024/02/25 05:26:01;;;;;;;1.95;1.35;;;;;;;9.62;59.34;99960.13;4954839;28;124200;-71
2024/02/25 05:28:28;;;;;;;4.97;1.40;;;;;;;9.61;59.69;99959.28;4964892;28;114880;-71
2024/02/25 05:30:56;;;;;;;2.47;1.33;;;;;;;9.61;59.66;99966.38;4951875;28;114647;-71
2024/02/25 05:33:26;;;;;;;3.40;1.23;;;;;;;9.61;59.52;99963.72;4955428;28;124024;-71
2024/02/25 05:35:53;;;;;;;1.90;1.40;;;;;;;9.62;59.30;99965.41;4965047;28;123835;-71
2024/02/25 05:38:21;;;;;;;1.52;1.30;;;;;;;9.62;59.79;99965.41;4966341;28;113743;-70
2024/02/25 05:40:48;;;;;;;1.70;1.40;;;;;;;9.61;59.49;99969.00;4955238;28;114397;-70
2024/02/25 05:43:15;;;;;;;1.90;1.40;;;;;;;9.60;59.68;99972.59;4957161;28;124107;-71
2024/02/25 05:45:43;;;;;;;2.05;1.50;;;;;;;9.58;59.75;99969.16;4964930;28;123639;-71
2024/02/25 05:48:10;;;;;;;2.70;1.50;;;;;;;9.59;59.92;99968.22;4964927;28;114584;-71
2024/02/25 05:50:37;;;;;;;2.95;1.75;;;;;;;9.57;59.69;99972.75;4964754;28;114963;-70
2024/02/25 05:53:05;;;;;;;1.83;1.38;;;;;;;9.58;60.03;99974.47;4966127;28;123306;-70
2024/02/25 05:55:32;;;;;;;1.98;1.63;;;;;;;9.58;60.12;99977.94;4969277;28;124256;-71
2024/02/25 05:57:59;;;;;;;2.65;1.40;;;;;;;9.59;60.12;99971.72;4960492;28;113845;-71
2024/02/25 06:00:26;;;;;;;2.17;1.70;;;;;;;9.60;59.94;99967.28;4960452;28;114540;-71
2024/02/25 06:02:54;;;;;;;1.77;1.45;;;;;;;9.60;60.03;99967.28;4958109;28;123720;-70
2024/02/25 06:05:21;;;;;;;2.60;1.50;;;;;;;9.60;60.02;99977.88;4953135;28;123304;-70
2024/02/25 06:07:49;;;;;;;2.78;1.75;;;;;;;9.58;59.97;99975.31;4960531;28;113985;-70
2024/02/25 06:10:16;;;;;;;2.25;1.45;;;;;;;9.55;60.00;99976.34;4966544;28;113429;-71
2024/02/25 06:12:43;;;;;;;2.72;1.55;;;;;;;9.53;59.89;99980.84;4967991;28;123836;-71
2024/02/25 06:15:14;;;;;;;2.65;1.60;;;;;;;9.52;59.80;99987.06;4968479;28;122871;-70
2024/02/25 06:17:41;;;;;;;4.13;1.60;;;;;;;9.50;60.41;99988.94;4966633;28;114188;-70
2024/02/25 06:20:10;;;;;;;2.83;1.77;;;;;;;9.49;60.05;99989.91;4964470;28;114021;-70
2024/02/25 06:22:39;;;;;;;2.45;1.58;;;;;;;9.49;60.12;99992.53;4954192;28;124888;-70
2024/02/25 06:25:07;;;;;;;2.97;1.80;;;;;;;9.48;59.90;99996.09;4967639;28;122827;-71
2024/02/25 06:27:37;;;;;;;4.80;1.73;;;;;;;9.46;59.79;99990.06;4960206;28;114078;-71
2024/02/25 06:30:08;;;;;;;3.88;1.60;;;;;;;9.44;60.08;99999.84;4960551;28;114054;-71
2024/02/25 06:32:35;;;;;;;3.67;2.15;;;;;;;9.46;60.03;99995.34;4957289;28;124071;-71
2024/02/25 06:35:03;;;;;;;2.90;1.88;;;;;;;9.46;60.03;99997.97;4965423;28;123012;-71
2024/02/25 06:37:31;;;;;;;4.07;1.80;;;;;;;9.46;60.16;100003.25;4963282;28;115394;-71
2024/02/25 06:39:58;;;;;;;2.53;1.60;;;;;;;9.47;60.26;99999.66;4964646;28;114463;-71
2024/02/25 06:42:27;;;;;;;2.75;1.58;;;;;;;9.47;60.18;100004.94;4961728;28;124677;-71
2024/02/25 06:44:54;;;;;;;2.80;1.60;;;;;;;9.46;60.15;100003.25;4948433;28;123475;-70
2024/02/25 06:47:22;;;;;;;2.13;1.40;;;;;;;9.48;60.27;100006.69;4967154;28;114026;-70
2024/02/25 06:49:49;;;;;;;3.88;1.80;;;;;;;9.49;60.07;100008.41;4958222;28;114305;-71
2024/02/25 06:52:17;;;;;;;2.70;1.80;;;;;;;9.49;60.26;100003.13;4962339;28;123592;-70
2024/02/25 06:54:44;;;;;;;2.97;1.70;;;;;;;9.51;60.45;100011.81;4969197;28;123758;-70
2024/02/25 06:57:15;;;;;;;2.30;1.60;;;;;;;9.51;60.58;100006.53;4962767;28;114199;-70
2024/02/25 06:59:43;;;;;;;3.15;1.40;;;;;;;9.53;60.10;100022.28;4964594;28;113866;-70
2024/02/25 07:02:11;;;;;;;2.13;1.27;;;;;;;9.53;60.16;100009.94;4951550;28;123783;-72
2024/02/25 07:04:38;;;;;;;1.98;1.15;;;;;;;9.55;60.13;100013.34;4962719;28;124238;-72
2024/02/25 07:07:05;;;;;;;1.20;0.98;;;;;;;9.57;59.85;100009.75;4968099;28;114289;-72
2024/02/25 07:09:33;;;;;;;1.52;1.02;;;;;;;9.57;59.84;100015.03;4961100;28;114441;-72
2024/02/25 07:12:00;;;;;;;3.03;1.30;;;;;;;9.56;59.92;100014.19;4965991;28;124784;-72
2024/02/25 07:14:30;;;;;;;2.03;1.30;;;;;;;9.57;60.05;100020.31;4964798;28;124156;-72
2024/02/25 07:16:58;;;;;;;1.63;1.25;;;;;;;9.58;60.23;100022.03;4968419;28;113980;-72
2024/02/25 07:19:25;;;;;;;3.63;1.80;;;;;;;9.60;60.20;100020.16;4958413;28;113261;-72
2024/02/25 07:21:54;;;;;;;2.13;1.48;;;;;;;9.62;60.31;100018.28;4967736;28;122965;-72
2024/02/25 07:24:24;;;;;;;2.15;1.17;;;;;;;9.65;60.39;100020.78;4965313;28;124521;-72
2024/02/25 07:26:52;;;;;;;2.20;1.25;;;;;;;9.67;59.91;100030.31;4961388;28;115488;-72
2024/02/25 07:29:21;;;;;;;3.10;1.10;;;;;;;9.68;60.19;100023.22;4956321;28;115095;-72
2024/02/25 07:31:52;;;;;;;2.58;1.20;;;;;;;9.69;60.31;100023.16;4963417;28;123829;-72
2024/02/25 07:34:20;;;;;;;2.20;1.00;;;;;;;9.72;60.18;100030.09;4959779;28;123575;-71
2024/02/25 07:36:48;;;;;;;2.15;1.30;;;;;;;9.74;60.15;100023.75;4964982;28;113977;-72
2024/02/25 07:39:15;;;;;;;3.75;1.20;;;;;;;9.78;60.18;100027.09;4962882;28;113997;-72
2024/02/25 07:41:47;;;;;;;2.00;1.13;;;;;;;9.79;60.17;100028.78;4963618;28;124257;-73
2024/02/25 07:44:15;;;;;;;2.30;1.27;;;;;;;9.82;60.24;100031.28;4967530;28;123323;-71
2024/02/25 07:46:43;;;;;;;1.48;1.13;;;;;;;9.83;60.23;100034.75;4963959;28;115137;-71
2024/02/25 07:49:10;;;;;;;3.22;1.30;;;;;;;9.85;60.06;100036.41;4957436;28;113543;-71
2024/02/25 07:51:37;;;;;;;4.00;1.40;;;;;;;9.87;60.17;100039.81;4959025;28;126649;-71
2024/02/25 07:54:05;;;;;;;2.35;1.20;;;;;;;9.88;60.26;100036.22;4965855;28;124371;-71
2024/02/25 07:56:32;;;;;;;2.00;1.25;;;;;;;9.89;60.28;100037.94;4959379;28;114290;-71
2024/02/25 07:58:59;;;;;;;2.38;1.50;;;;;;;9.93;60.18;100044.75;4958900;28;113889;-71
2024/02/25 08:01:27;;;;;;;3.40;1.30;;;;;;;9.96;60.07;100059.59;4956394;28;123956;-71
2024/02/25 08:03:54;;;;;;;1.70;1.20;;;;;;;9.96;60.19;100045.53;4958502;28;123957;-71
2024/02/25 08:06:27;;;;;;;3.00;1.10;;;;;;;9.97;59.99;100047.25;4961477;28;114079;-71
2024/02/25 08:08:54;;;;;;;1.42;1.15;;;;;;;10.01;60.03;100051.44;4965755;28;114091;-71
2024/02/25 08:11:23;;;;;;;2.33;1.48;;;;;;;10.02;60.22;100047.81;4967466;28;123508;-71
2024/02/25 08:13:51;;;;;;;3.72;1.35;;;;;;;10.06;60.30;100049.38;4963124;28;124061;-71
2024/02/25 08:16:21;;;;;;;2.17;1.20;;;;;;;10.09;60.04;100049.19;4966444;28;114850;-71
2024/02/25 08:18:53;;;;;;;1.85;1.40;;;;;;;10.14;60.39;100047.16;4963591;28;115195;-71
2024/02/25 08:21:21;;;;;;;2.03;1.33;;;;;;;10.17;60.14;100060.22;4962409;28;124246;-71
2024/02/25 08:23:48;;;;;;;3.38;1.50;;;;;;;10.20;60.27;100057.38;4964484;28;124956;-71
2024/02/25 08:26:16;;;;;;;2.33;1.30;;;;;;;10.21;60.01;100053.81;4960911;28;113037;-71
2024/02/25 08:28:43;;;;;;;1.63;1.02;;;;;;;10.23;60.05;100059.88;4953276;28;112580;-71
2024/02/25 08:31:11;;;;;;;2.25;1.38;;;;;;;10.26;60.26;100061.47;4964283;28;124523;-71
2024/02/25 08:33:39;;;;;;;2.63;1.35;;;;;;;10.27;60.09;100066.69;4977646;28;123951;-71
2024/02/25 08:36:07;;;;;;;2.63;1.20;;;;;;;10.30;60.21;100061.28;4968919;28;114052;-72
2024/02/25 08:38:40;;;;;;;3.63;1.40;;;;;;;10.33;60.00;100069.00;4963634;28;98839;-71
2024/02/25 08:41:07;;;;;;;3.65;1.35;;;;;;;10.35;60.00;100066.28;4961379;28;124343;-72
2024/02/25 08:43:35;;;;;;;1.65;1.15;;;;;;;10.36;60.23;100064.50;4960077;28;124639;-71
2024/02/25 08:46:02;;;;;;;1.80;1.15;;;;;;;10.38;60.23;100059.97;4961162;28;114029;-71
2024/02/25 08:48:30;;;;;;;1.50;1.10;;;;;;;10.41;59.99;100065.09;4979880;28;113701;-71
2024/02/25 08:50:57;;;;;;;3.42;1.48;;;;;;;10.43;60.06;100064.03;4956239;28;126648;-71
2024/02/25 08:53:25;;;;;;;3.38;1.40;;;;;;;10.47;60.13;100075.31;4958852;28;123341;-71
2024/02/25 08:55:52;;;;;;;3.47;1.30;;;;;;;10.49;60.13;100068.13;4953958;28;114561;-72
2024/02/25 08:58:20;;;;;;;2.00;1.25;;;;;;;10.50;59.85;100075.16;4967209;28;113414;-71
2024/02/25 09:00:47;;;;;;;2.40;1.33;;;;;;;10.49;59.99;100073.44;4965280;28;124300;-71
2024/02/25 09:03:14;;;;;;;1.92;1.48;;;;;;;10.49;59.86;100073.44;4956550;28;123977;-71
2024/02/25 09:05:42;;;;;;;3.35;1.35;;;;;;;10.50;59.99;100075.16;4962281;28;115873;-71
2024/02/25 09:08:12;;;;;;;6.65;1.33;;;;;;;10.49;59.82;100069.00;4956955;28;115714;-71
2024/02/25 09:10:39;;;;;;;4.60;1.70;;;;;;;10.50;59.73;100064.56;4965047;28;123735;-71
2024/02/25 09:13:07;;;;;;;2.08;1.40;;;;;;;10.49;59.93;100068.13;4964853;28;123494;-71
2024/02/25 09:15:34;;;;;;;2.25;1.25;;;;;;;10.50;59.99;100069.88;4963731;28;113674;-71
2024/02/25 09:18:06;;;;;;;1.80;1.27;;;;;;;10.49;59.86;100069.00;4966173;28;114312;-71
2024/02/25 09:20:34;;;;;;;2.35;1.50;;;;;;;10.50;59.90;100064.56;4976265;28;124438;-71
2024/02/25 09:23:05;;;;;;;3.13;1.50;;;;;;;10.51;60.19;100071.59;4948138;28;123041;-71
2024/02/25 09:25:36;;;;;;;2.50;1.25;;;;;;;10.55;60.10;100061.63;4971090;28;114697;-71
2024/02/25 09:28:04;;;;;;;2.05;1.15;;;;;;;10.59;59.95;100064.03;4965857;28;111245;-71
2024/02/25 09:30:37;;;;;;;2.70;1.40;;;;;;;10.61;59.94;100067.44;4956651;28;123888;-71
2024/02/25 09:33:04;;;;;;;2.38;1.35;;;;;;;10.63;60.03;100065.56;4967873;28;124230;-71
2024/02/25 09:35:32;;;;;;;2.10;1.25;;;;;;;10.66;59.96;100070.69;4963133;28;114606;-71
2024/02/25 09:37:59;;;;;;;2.63;1.40;;;;;;;10.70;60.23;100072.22;4967173;28;114201;-71
2024/02/25 09:40:27;;;;;;;3.22;1.38;;;;;;;10.75;60.16;100068.44;4967704;28;123463;-71
2024/02/25 09:42:56;;;;;;;3.15;1.30;;;;;;;10.78;59.90;100070.94;4980537;28;123726;-71
2024/02/25 09:45:32;;;;;;;3.33;1.50;;;;;;;10.81;60.17;100071.59;4963225;28;114269;-71
2024/02/25 09:48:00;;;;;;;2.80;1.52;;;;;;;10.85;60.09;100074.91;4962334;28;114109;-71
2024/02/25 09:50:29;;;;;;;2.47;1.55;;;;;;;10.89;60.18;100065.84;4966383;28;123730;-71
2024/02/25 09:52:57;;;;;;;3.78;1.40;;;;;;;10.95;60.26;100060.19;4966127;28;124029;-71
2024/02/25 09:55:25;;;;;;;3.38;1.27;;;;;;;11.02;60.24;100061.53;4969752;28;115173;-71
2024/02/25 09:57:53;;;;;;;3.13;1.77;;;;;;;11.13;60.34;100067.97;4963822;28;114851;-71
2024/02/25 10:00:20;;;;;;;6.53;1.75;;;;;;;11.26;60.37;100068.94;4968507;28;124385;-71
2024/02/25 10:02:49;;;;;;;5.65;1.75;;;;;;;11.39;60.63;100063.75;4953533;28;123480;-71
2024/02/25 10:05:18;;;;;;;2.85;1.67;;;;;;;11.53;60.34;100060.25;4968413;28;114649;-71
2024/02/25 10:08:01;;;;;;;1.88;1.55;;;;;;;11.67;60.54;100060.25;4971027;28;113542;-71
2024/02/25 10:10:31;;;;;;;3.30;1.80;;;;;;;11.79;60.22;100059.50;4964961;28;124599;-71
2024/02/25 10:13:03;;;;;;;2.92;1.50;;;;;;;11.87;59.94;100064.31;4966549;28;124266;-71
2024/02/25 10:15:31;;;;;;;2.47;1.42;;;;;;;11.91;59.91;100054.41;4964484;28;114215;-71
2024/02/25 10:17:58;;;;;;;2.65;1.20;;;;;;;11.94;59.55;100064.78;4964477;28;114584;-71
2024/02/25 10:20:26;;;;;;;2.33;1.50;;;;;;;11.97;59.52;100059.31;4970989;28;123475;-71
2024/02/25 10:23:10;;;;;;;3.13;1.70;;;;;;;12.00;59.45;100053.81;4967365;28;125316;-71
2024/02/25 10:25:43;;;;;;;4.50;1.77;;;;;;;12.10;59.77;100060.22;4968302;28;114248;-71
2024/02/25 10:28:14;;;;;;;4.13;1.70;;;;;;;12.23;60.00;100055.84;4963346;28;114043;-71
2024/02/25 10:31:01;;;;;;;6.47;1.98;;;;;;;12.38;59.76;100053.16;4962714;28;123977;-71
2024/02/25 10:33:28;;;;;;;1.67;1.33;;;;;;;12.48;59.26;100048.06;4950232;28;123596;-71
2024/02/25 10:36:12;;;;;;;2.40;1.42;;;;;;;12.53;59.34;100057.44;4951860;28;114866;-71
2024/02/25 10:38:44;;;;;;;3.38;1.52;;;;;;;12.61;59.17;100054.28;4949446;28;113327;-71
2024/02/25 10:41:15;;;;;;;3.78;1.80;;;;;;;12.65;58.93;100056.63;4959745;28;124480;-71
2024/02/25 10:43:45;;;;;;;3.55;1.60;;;;;;;12.72;58.83;100058.88;4960665;28;123659;-71
2024/02/25 10:46:30;;;;;;;2.08;1.35;;;;;;;12.77;58.76;100062.06;4963875;28;115260;-71
2024/02/25 10:49:00;;;;;;;3.83;1.20;;;;;;;12.85;58.54;100067.75;4968113;28;115152;-71
2024/02/25 10:51:29;;;;;;;1.80;1.13;;;;;;;12.92;58.38;100053.09;4968913;28;124721;-71
2024/02/25 10:53:56;;;;;;;4.05;1.45;;;;;;;12.95;58.10;100066.16;4958617;28;123484;-71
2024/02/25 10:56:24;;;;;;;3.10;1.30;;;;;;;12.96;57.68;100062.56;4958872;28;114065;-71
2024/02/25 10:58:52;;;;;;;2.78;1.13;;;;;;;12.96;57.75;100065.22;4953715;28;113313;-71
2024/02/25 11:01:21;;;;;;;2.50;1.30;;;;;;;12.95;57.70;100067.97;4954894;28;123861;-71
2024/02/25 11:03:49;;;;;;;2.22;1.17;;;;;;;12.97;57.59;100058.94;4966077;28;124049;-71
2024/02/25 11:06:32;;;;;;;3.10;1.10;;;;;;;12.97;57.49;100050.94;4966608;28;113998;-71
2024/02/25 11:09:15;;;;;;;1.67;1.20;;;;;;;13.01;57.72;100057.75;4966884;28;113311;-71
2024/02/25 11:11:43;;;;;;;3.33;1.30;;;;;;;13.13;57.62;100044.59;4948893;28;123579;-71
2024/02/25 11:14:32;;;;;;;;;;;;;;;13.21;58.17;100059.06;4971251;28;123853;-71
2024/02/25 11:17:00;;;;;;;2.25;1.33;;;;;;;13.30;57.41;100057.63;4960634;28;115977;-71
2024/02/25 11:19:28;;;;;;;2.42;1.13;;;;;;;13.32;57.39;100050.38;4958339;28;114006;-71
2024/02/25 11:21:56;;;;;;;4.07;1.33;;;;;;;13.38;57.09;100059.75;4963986;28;124053;-71
2024/02/25 11:24:50;;;;;;;3.22;1.27;;;;;;;13.39;56.96;100051.66;4958038;28;123914;-71
2024/02/25 11:27:17;;;;;;;2.65;1.30;;;;;;;13.39;56.81;100046.34;4947400;28;113875;-71
2024/02/25 11:29:45;;;;;;;2.40;1.30;;;;;;;13.37;56.64;100042.94;4967267;28;114706;-71
2024/02/25 11:32:33;;;;;;;2.00;1.20;;;;;;;13.31;56.62;100038.03;4958726;28;124362;-71
2024/02/25 11:35:00;;;;;;;4.30;1.40;;;;;;;13.30;56.50;100046.09;4962807;28;123639;-71
2024/02/25 11:37:28;;;;;;;4.50;1.67;;;;;;;13.27;56.12;100043.66;4962991;28;114306;-71
2024/02/25 11:39:56;;;;;;;2.65;1.33;;;;;;;13.22;56.03;100043.94;4966161;28;115169;-71
2024/02/25 11:42:24;;;;;;;3.38;1.30;;;;;;;13.17;56.06;100038.97;4957398;28;124112;-71